sensor_id;sensor_type;location;lat;lon;timestamp;pressure;altitude;pressure_sealevel;temperature;humidity
59588;BME280;45412;54.472;18.464;2022-08-03T00:00:07;100146.81;;;14.53;80.65
59588;BME280;45412;54.472;18.464;2022-08-03T00:03:04;100142.14;;;14.55;80.79
59588;BME280;45412;54.472;18.464;2022-08-03T00:05:53;100145.19;;;14.57;80.79
59588;BME280;45412;54.472;18.464;2022-08-03T00:08:51;100143.75;;;14.57;80.94
59588;BME280;45412;54.472;18.464;2022-08-03T00:11:39;100146.04;;;14.56;81.14
59588;BME280;45412;54.472;18.464;2022-08-03T00:14:27;100144.31;;;14.55;81.14
59588;BME280;45412;54.472;18.464;2022-08-03T00:17:15;100142.38;;;14.54;81.28
59588;BME280;45412;54.472;18.464;2022-08-03T00:20:04;100134.96;;;14.55;81.68
59588;BME280;45412;54.472;18.464;2022-08-03T00:22:52;100135.33;;;14.55;81.78
59588;BME280;45412;54.472;18.464;2022-08-03T00:25:40;100130.05;;;14.56;82.21
59588;BME280;45412;54.472;18.464;2022-08-03T00:28:28;100125.20;;;14.57;82.01
59588;BME280;45412;54.472;18.464;2022-08-03T00:31:16;100124.29;;;14.55;82.29
59588;BME280;45412;54.472;18.464;2022-08-03T00:34:25;100121.29;;;14.51;82.42
59588;BME280;45412;54.472;18.464;2022-08-03T00:37:32;100124.03;;;14.50;82.77
59588;BME280;45412;54.472;18.464;2022-08-03T00:40:28;100115.41;;;14.45;82.59
59588;BME280;45412;54.472;18.464;2022-08-03T00:43:16;100118.98;;;14.49;82.81
59588;BME280;45412;54.472;18.464;2022-08-03T00:46:04;100118.76;;;14.49;82.96
59588;BME280;45412;54.472;18.464;2022-08-03T00:48:52;100118.57;;;14.52;83.24
59588;BME280;45412;54.472;18.464;2022-08-03T00:51:40;100117.37;;;14.53;83.02
59588;BME280;45412;54.472;18.464;2022-08-03T00:54:28;100118.50;;;14.56;83.13
59588;BME280;45412;54.472;18.464;2022-08-03T00:57:17;100120.78;;;14.60;83.17
59588;BME280;45412;54.472;18.464;2022-08-03T01:00:08;100118.45;;;14.62;83.26
59588;BME280;45412;54.472;18.464;2022-08-03T01:02:56;100115.55;;;14.65;82.97
59588;BME280;45412;54.472;18.464;2022-08-03T01:08:47;100112.46;;;14.69;82.95
59588;BME280;45412;54.472;18.464;2022-08-03T01:12:00;100112.88;;;14.72;82.85
59588;BME280;45412;54.472;18.464;2022-08-03T01:15:24;100110.08;;;14.76;82.76
59588;BME280;45412;54.472;18.464;2022-08-03T01:25:23;100103.11;;;14.91;82.02
59588;BME280;45412;54.472;18.464;2022-08-03T01:31:52;100094.29;;;14.99;81.27
59588;BME280;45412;54.472;18.464;2022-08-03T01:35:15;100089.58;;;15.02;81.11
59588;BME280;45412;54.472;18.464;2022-08-03T01:38:17;100095.10;;;15.06;81.06
59588;BME280;45412;54.472;18.464;2022-08-03T01:41:17;100091.73;;;15.07;80.73
59588;BME280;45412;54.472;18.464;2022-08-03T01:44:09;100093.20;;;15.10;80.50
59588;BME280;45412;54.472;18.464;2022-08-03T01:47:20;100090.20;;;15.14;80.25
59588;BME280;45412;54.472;18.464;2022-08-03T01:50:09;100087.67;;;15.18;80.01
59588;BME280;45412;54.472;18.464;2022-08-03T01:52:59;100087.57;;;15.19;80.17
59588;BME280;45412;54.472;18.464;2022-08-03T01:55:52;100085.23;;;15.19;79.99
59588;BME280;45412;54.472;18.464;2022-08-03T01:58:41;100082.20;;;15.19;80.01
59588;BME280;45412;54.472;18.464;2022-08-03T02:01:32;100078.48;;;15.17;79.86
59588;BME280;45412;54.472;18.464;2022-08-03T02:04:46;100079.20;;;15.17;79.84
59588;BME280;45412;54.472;18.464;2022-08-03T02:07:35;100080.11;;;15.14;79.94
59588;BME280;45412;54.472;18.464;2022-08-03T02:10:25;100072.27;;;15.14;79.85
59588;BME280;45412;54.472;18.464;2022-08-03T02:13:23;100074.70;;;15.15;79.56
59588;BME280;45412;54.472;18.464;2022-08-03T02:16:12;100071.52;;;15.15;79.47
59588;BME280;45412;54.472;18.464;2022-08-03T02:19:04;100070.36;;;15.16;79.55
59588;BME280;45412;54.472;18.464;2022-08-03T02:21:53;100068.55;;;15.16;79.29
59588;BME280;45412;54.472;18.464;2022-08-03T02:24:47;100067.84;;;15.16;79.62
59588;BME280;45412;54.472;18.464;2022-08-03T02:27:42;100063.86;;;15.17;79.28
59588;BME280;45412;54.472;18.464;2022-08-03T02:30:36;100058.65;;;15.19;79.07
59588;BME280;45412;54.472;18.464;2022-08-03T02:33:32;100054.71;;;15.22;78.86
59588;BME280;45412;54.472;18.464;2022-08-03T02:36:28;100058.45;;;15.28;78.79
59588;BME280;45412;54.472;18.464;2022-08-03T02:39:20;100058.46;;;15.31;78.86
59588;BME280;45412;54.472;18.464;2022-08-03T02:42:13;100057.96;;;15.37;78.87
59588;BME280;45412;54.472;18.464;2022-08-03T02:45:06;100057.10;;;15.40;78.58
59588;BME280;45412;54.472;18.464;2022-08-03T02:48:02;100054.35;;;15.44;78.38
59588;BME280;45412;54.472;18.464;2022-08-03T02:50:53;100054.77;;;15.47;78.32
59588;BME280;45412;54.472;18.464;2022-08-03T02:53:42;100053.91;;;15.50;78.29
59588;BME280;45412;54.472;18.464;2022-08-03T02:56:32;100052.02;;;15.54;77.85
59588;BME280;45412;54.472;18.464;2022-08-03T02:59:21;100052.20;;;15.55;78.08
59588;BME280;45412;54.472;18.464;2022-08-03T03:02:11;100046.14;;;15.57;77.94
59588;BME280;45412;54.472;18.464;2022-08-03T03:05:02;100047.59;;;15.59;77.93
59588;BME280;45412;54.472;18.464;2022-08-03T03:08:13;100051.01;;;15.62;77.83
59588;BME280;45412;54.472;18.464;2022-08-03T03:11:06;100054.35;;;15.64;77.67
59588;BME280;45412;54.472;18.464;2022-08-03T03:13:56;100050.59;;;15.66;77.76
59588;BME280;45412;54.472;18.464;2022-08-03T03:16:46;100052.52;;;15.69;78.01
59588;BME280;45412;54.472;18.464;2022-08-03T03:19:44;100050.70;;;15.71;77.89
59588;BME280;45412;54.472;18.464;2022-08-03T03:22:34;100050.76;;;15.74;77.85
59588;BME280;45412;54.472;18.464;2022-08-03T03:25:23;100050.73;;;15.77;77.76
59588;BME280;45412;54.472;18.464;2022-08-03T03:28:11;100054.10;;;15.83;77.68
59588;BME280;45412;54.472;18.464;2022-08-03T03:30:59;100056.60;;;15.89;77.60
59588;BME280;45412;54.472;18.464;2022-08-03T03:33:48;100052.34;;;15.94;77.41
59588;BME280;45412;54.472;18.464;2022-08-03T03:36:36;100058.12;;;15.99;77.19
59588;BME280;45412;54.472;18.464;2022-08-03T03:39:24;100053.91;;;16.04;77.20
59588;BME280;45412;54.472;18.464;2022-08-03T03:42:13;100058.07;;;16.08;76.99
59588;BME280;45412;54.472;18.464;2022-08-03T03:45:06;100057.84;;;16.14;76.97
59588;BME280;45412;54.472;18.464;2022-08-03T03:47:54;100063.04;;;16.21;76.74
59588;BME280;45412;54.472;18.464;2022-08-03T03:50:43;100061.61;;;16.28;76.69
59588;BME280;45412;54.472;18.464;2022-08-03T03:53:32;100065.07;;;16.37;76.62
59588;BME280;45412;54.472;18.464;2022-08-03T03:56:19;100069.48;;;16.44;76.32
59588;BME280;45412;54.472;18.464;2022-08-03T03:59:08;100068.14;;;16.52;76.26
59588;BME280;45412;54.472;18.464;2022-08-03T04:01:56;100070.02;;;16.60;75.79
59588;BME280;45412;54.472;18.464;2022-08-03T04:04:46;100077.33;;;16.69;75.68
59588;BME280;45412;54.472;18.464;2022-08-03T04:07:59;100079.48;;;16.79;75.32
59588;BME280;45412;54.472;18.464;2022-08-03T04:11:21;100080.58;;;16.92;74.72
59588;BME280;45412;54.472;18.464;2022-08-03T04:14:34;100076.51;;;17.05;74.10
59588;BME280;45412;54.472;18.464;2022-08-03T04:17:27;100076.39;;;17.18;73.44
59588;BME280;45412;54.472;18.464;2022-08-03T04:20:18;100074.79;;;17.30;73.11
59588;BME280;45412;54.472;18.464;2022-08-03T04:23:08;100076.25;;;17.43;72.50
59588;BME280;45412;54.472;18.464;2022-08-03T04:26:04;100076.71;;;17.55;71.34
59588;BME280;45412;54.472;18.464;2022-08-03T04:28:56;100080.48;;;17.71;71.00
59588;BME280;45412;54.472;18.464;2022-08-03T04:31:45;100081.59;;;17.89;70.61
59588;BME280;45412;54.472;18.464;2022-08-03T04:34:35;100085.77;;;18.09;69.74
59588;BME280;45412;54.472;18.464;2022-08-03T04:37:44;100086.38;;;18.26;68.90
59588;BME280;45412;54.472;18.464;2022-08-03T04:40:36;100087.13;;;18.46;67.45
59588;BME280;45412;54.472;18.464;2022-08-03T04:43:26;100086.34;;;18.61;66.94
59588;BME280;45412;54.472;18.464;2022-08-03T04:46:18;100082.55;;;18.79;66.39
59588;BME280;45412;54.472;18.464;2022-08-03T04:49:08;100084.48;;;18.99;65.78
59588;BME280;45412;54.472;18.464;2022-08-03T04:51:58;100086.31;;;19.16;65.06
59588;BME280;45412;54.472;18.464;2022-08-03T04:54:46;100087.17;;;19.34;64.19
59588;BME280;45412;54.472;18.464;2022-08-03T04:57:37;100088.66;;;19.47;62.67
59588;BME280;45412;54.472;18.464;2022-08-03T05:00:25;100088.52;;;19.59;61.91
59588;BME280;45412;54.472;18.464;2022-08-03T05:03:13;100091.62;;;19.73;61.26
59588;BME280;45412;54.472;18.464;2022-08-03T05:06:11;100088.84;;;19.85;60.68
59588;BME280;45412;54.472;18.464;2022-08-03T05:09:02;100092.77;;;19.98;60.22
59588;BME280;45412;54.472;18.464;2022-08-03T05:11:51;100095.20;;;20.08;59.85
59588;BME280;45412;54.472;18.464;2022-08-03T05:14:40;100097.69;;;20.20;59.38
59588;BME280;45412;54.472;18.464;2022-08-03T05:17:28;100092.21;;;20.33;58.72
59588;BME280;45412;54.472;18.464;2022-08-03T05:20:16;100096.02;;;20.50;58.25
59588;BME280;45412;54.472;18.464;2022-08-03T05:23:05;100099.31;;;20.69;57.76
59588;BME280;45412;54.472;18.464;2022-08-03T05:25:53;100095.33;;;20.89;57.01
59588;BME280;45412;54.472;18.464;2022-08-03T05:28:42;100095.88;;;21.10;56.36
59588;BME280;45412;54.472;18.464;2022-08-03T05:31:38;100094.85;;;21.30;55.54
59588;BME280;45412;54.472;18.464;2022-08-03T05:34:27;100097.84;;;21.50;54.87
59588;BME280;45412;54.472;18.464;2022-08-03T05:37:15;100098.70;;;21.72;53.99
59588;BME280;45412;54.472;18.464;2022-08-03T05:40:04;100103.11;;;22.00;53.37
59588;BME280;45412;54.472;18.464;2022-08-03T05:42:52;100101.54;;;22.31;52.60
59588;BME280;45412;54.472;18.464;2022-08-03T05:45:40;100100.55;;;22.57;51.95
59588;BME280;45412;54.472;18.464;2022-08-03T05:48:28;100099.97;;;22.94;50.94
59588;BME280;45412;54.472;18.464;2022-08-03T05:51:16;100103.61;;;23.33;50.10
59588;BME280;45412;54.472;18.464;2022-08-03T05:54:04;100104.54;;;23.69;49.72
59588;BME280;45412;54.472;18.464;2022-08-03T05:56:52;100099.23;;;24.40;48.30
59588;BME280;45412;54.472;18.464;2022-08-03T05:59:40;100103.16;;;25.10;46.36
59588;BME280;45412;54.472;18.464;2022-08-03T06:02:45;100094.48;;;25.98;43.86
59588;BME280;45412;54.472;18.464;2022-08-03T06:05:33;100094.85;;;26.54;42.02
59588;BME280;45412;54.472;18.464;2022-08-03T06:08:29;100099.55;;;27.72;40.42
59588;BME280;45412;54.472;18.464;2022-08-03T06:11:17;100095.14;;;28.80;37.68
59588;BME280;45412;54.472;18.464;2022-08-03T06:14:05;100096.66;;;30.00;35.49
59588;BME280;45412;54.472;18.464;2022-08-03T06:16:53;100094.39;;;31.08;33.23
59588;BME280;45412;54.472;18.464;2022-08-03T06:19:41;100096.66;;;32.24;31.35
59588;BME280;45412;54.472;18.464;2022-08-03T06:22:29;100095.48;;;33.18;28.46
59588;BME280;45412;54.472;18.464;2022-08-03T06:25:18;100093.23;;;33.96;27.70
59588;BME280;45412;54.472;18.464;2022-08-03T06:28:07;100089.73;;;34.51;25.99
59588;BME280;45412;54.472;18.464;2022-08-03T06:31:10;100089.85;;;34.96;25.31
59588;BME280;45412;54.472;18.464;2022-08-03T06:33:58;100089.06;;;35.55;23.57
59588;BME280;45412;54.472;18.464;2022-08-03T06:37:06;100090.31;;;35.78;22.57
59588;BME280;45412;54.472;18.464;2022-08-03T06:39:54;100091.30;;;35.71;21.77
59588;BME280;45412;54.472;18.464;2022-08-03T06:42:42;100087.90;;;35.64;21.59
59588;BME280;45412;54.472;18.464;2022-08-03T06:45:33;100085.08;;;35.73;21.28
59588;BME280;45412;54.472;18.464;2022-08-03T06:48:26;100086.52;;;36.22;21.05
59588;BME280;45412;54.472;18.464;2022-08-03T06:51:14;100084.00;;;36.93;20.34
59588;BME280;45412;54.472;18.464;2022-08-03T06:54:03;100082.91;;;37.46;18.67
59588;BME280;45412;54.472;18.464;2022-08-03T06:56:52;100080.81;;;37.52;18.49
59588;BME280;45412;54.472;18.464;2022-08-03T06:59:40;100080.53;;;37.72;18.00
59588;BME280;45412;54.472;18.464;2022-08-03T07:02:48;100080.80;;;38.42;17.69
59588;BME280;45412;54.472;18.464;2022-08-03T07:05:42;100074.21;;;38.96;16.99
59588;BME280;45412;54.472;18.464;2022-08-03T07:08:33;100076.91;;;39.68;16.08
59588;BME280;45412;54.472;18.464;2022-08-03T07:11:22;100077.48;;;40.25;15.47
59588;BME280;45412;54.472;18.464;2022-08-03T07:14:10;100074.29;;;40.43;14.80
59588;BME280;45412;54.472;18.464;2022-08-03T07:16:58;100074.67;;;40.45;14.94
59588;BME280;45412;54.472;18.464;2022-08-03T07:19:49;100068.30;;;40.81;15.37
59588;BME280;45412;54.472;18.464;2022-08-03T07:22:36;100070.14;;;41.12;14.42
59588;BME280;45412;54.472;18.464;2022-08-03T07:25:25;100069.02;;;41.22;13.86
59588;BME280;45412;54.472;18.464;2022-08-03T07:28:13;100069.96;;;41.33;14.04
59588;BME280;45412;54.472;18.464;2022-08-03T07:31:02;100068.30;;;41.42;13.94
59588;BME280;45412;54.472;18.464;2022-08-03T07:33:49;100068.96;;;41.41;14.24
59588;BME280;45412;54.472;18.464;2022-08-03T07:36:37;100063.88;;;41.58;14.17
59588;BME280;45412;54.472;18.464;2022-08-03T07:39:25;100064.30;;;41.78;13.85
59588;BME280;45412;54.472;18.464;2022-08-03T07:42:13;100068.13;;;41.92;13.56
59588;BME280;45412;54.472;18.464;2022-08-03T07:45:02;100067.48;;;41.90;13.41
59588;BME280;45412;54.472;18.464;2022-08-03T07:47:50;100066.09;;;41.82;13.57
59588;BME280;45412;54.472;18.464;2022-08-03T07:50:40;100064.27;;;41.70;13.72
59588;BME280;45412;54.472;18.464;2022-08-03T07:53:28;100060.43;;;41.67;13.67
59588;BME280;45412;54.472;18.464;2022-08-03T07:56:16;100065.54;;;42.04;13.82
59588;BME280;45412;54.472;18.464;2022-08-03T07:59:04;100059.89;;;42.47;13.80
59588;BME280;45412;54.472;18.464;2022-08-03T08:01:53;100062.14;;;42.51;13.22
59588;BME280;45412;54.472;18.464;2022-08-03T08:04:43;100056.55;;;42.43;13.60
59588;BME280;45412;54.472;18.464;2022-08-03T08:07:31;100055.62;;;42.48;13.83
59588;BME280;45412;54.472;18.464;2022-08-03T08:10:19;100057.45;;;43.00;13.61
59588;BME280;45412;54.472;18.464;2022-08-03T08:13:07;100051.61;;;43.29;13.00
59588;BME280;45412;54.472;18.464;2022-08-03T08:15:55;100054.73;;;43.41;12.94
59588;BME280;45412;54.472;18.464;2022-08-03T08:18:43;100056.20;;;43.01;13.04
59588;BME280;45412;54.472;18.464;2022-08-03T08:21:31;100059.70;;;42.33;13.60
59588;BME280;45412;54.472;18.464;2022-08-03T08:24:39;100055.67;;;41.71;13.73
59588;BME280;45412;54.472;18.464;2022-08-03T08:27:29;100053.55;;;41.35;14.45
59588;BME280;45412;54.472;18.464;2022-08-03T08:30:40;100056.84;;;41.42;14.10
59588;BME280;45412;54.472;18.464;2022-08-03T08:33:28;100054.48;;;40.98;14.61
59588;BME280;45412;54.472;18.464;2022-08-03T08:36:36;100052.52;;;41.07;14.90
59588;BME280;45412;54.472;18.464;2022-08-03T08:39:24;100053.13;;;41.33;14.69
59588;BME280;45412;54.472;18.464;2022-08-03T08:42:12;100054.94;;;41.79;14.31
59588;BME280;45412;54.472;18.464;2022-08-03T08:45:04;100054.59;;;41.89;14.01
59588;BME280;45412;54.472;18.464;2022-08-03T08:47:54;100052.19;;;42.04;14.13
59588;BME280;45412;54.472;18.464;2022-08-03T08:50:53;100055.82;;;41.81;14.20
59588;BME280;45412;54.472;18.464;2022-08-03T08:53:44;100059.28;;;42.11;14.30
59588;BME280;45412;54.472;18.464;2022-08-03T08:56:35;100055.27;;;42.24;14.00
59588;BME280;45412;54.472;18.464;2022-08-03T08:59:25;100054.13;;;42.28;13.91
59588;BME280;45412;54.472;18.464;2022-08-03T09:02:34;100051.56;;;42.31;14.68
59588;BME280;45412;54.472;18.464;2022-08-03T09:05:22;100053.44;;;42.34;15.94
59588;BME280;45412;54.472;18.464;2022-08-03T09:08:31;100054.13;;;42.15;16.33
59588;BME280;45412;54.472;18.464;2022-08-03T09:11:21;100057.58;;;41.88;16.45
59588;BME280;45412;54.472;18.464;2022-08-03T09:14:30;100051.55;;;41.98;16.65
59588;BME280;45412;54.472;18.464;2022-08-03T09:17:39;100048.77;;;42.09;16.28
59588;BME280;45412;54.472;18.464;2022-08-03T09:20:31;100046.32;;;42.26;16.17
59588;BME280;45412;54.472;18.464;2022-08-03T09:23:20;100049.45;;;42.23;15.95
59588;BME280;45412;54.472;18.464;2022-08-03T09:26:30;100050.69;;;42.22;16.13
59588;BME280;45412;54.472;18.464;2022-08-03T09:29:19;100044.81;;;42.12;16.06
59588;BME280;45412;54.472;18.464;2022-08-03T09:32:09;100052.77;;;41.89;15.90
59588;BME280;45412;54.472;18.464;2022-08-03T09:35:03;100045.12;;;40.98;16.79
59588;BME280;45412;54.472;18.464;2022-08-03T09:38:18;100051.10;;;39.99;17.28
59588;BME280;45412;54.472;18.464;2022-08-03T09:41:17;100049.84;;;40.17;17.21
59588;BME280;45412;54.472;18.464;2022-08-03T09:44:07;100042.52;;;39.95;16.99
59588;BME280;45412;54.472;18.464;2022-08-03T09:47:14;100044.60;;;39.89;17.30
59588;BME280;45412;54.472;18.464;2022-08-03T09:50:07;100039.88;;;40.16;17.16
59588;BME280;45412;54.472;18.464;2022-08-03T09:53:00;100041.73;;;40.37;16.69
59588;BME280;45412;54.472;18.464;2022-08-03T09:59:00;100049.77;;;40.77;15.85
59588;BME280;45412;54.472;18.464;2022-08-03T10:01:48;100046.85;;;40.08;16.49
59588;BME280;45412;54.472;18.464;2022-08-03T10:04:50;100045.55;;;40.18;16.56
59588;BME280;45412;54.472;18.464;2022-08-03T10:07:47;100048.25;;;40.26;16.30
59588;BME280;45412;54.472;18.464;2022-08-03T10:10:42;100044.89;;;40.37;16.36
59588;BME280;45412;54.472;18.464;2022-08-03T10:13:30;100039.67;;;39.41;17.12
59588;BME280;45412;54.472;18.464;2022-08-03T10:16:19;100035.01;;;39.43;17.04
59588;BME280;45412;54.472;18.464;2022-08-03T10:19:12;100034.18;;;39.85;16.83
59588;BME280;45412;54.472;18.464;2022-08-03T10:22:09;100031.27;;;40.06;16.21
59588;BME280;45412;54.472;18.464;2022-08-03T10:25:08;100029.61;;;40.21;16.03
59588;BME280;45412;54.472;18.464;2022-08-03T10:28:01;100026.67;;;40.31;16.27
59588;BME280;45412;54.472;18.464;2022-08-03T10:30:52;100028.45;;;40.20;16.19
59588;BME280;45412;54.472;18.464;2022-08-03T10:33:46;100024.84;;;39.10;17.00
59588;BME280;45412;54.472;18.464;2022-08-03T10:36:40;100026.70;;;39.41;17.06
59588;BME280;45412;54.472;18.464;2022-08-03T10:39:29;100026.40;;;39.73;16.71
59588;BME280;45412;54.472;18.464;2022-08-03T10:42:18;100023.48;;;39.90;16.26
59588;BME280;45412;54.472;18.464;2022-08-03T10:45:25;100019.18;;;40.04;16.16
59588;BME280;45412;54.472;18.464;2022-08-03T10:48:13;100012.66;;;40.32;15.89
59588;BME280;45412;54.472;18.464;2022-08-03T10:51:03;100019.45;;;40.30;15.60
59588;BME280;45412;54.472;18.464;2022-08-03T10:53:51;100015.64;;;40.24;15.76
59588;BME280;45412;54.472;18.464;2022-08-03T10:56:42;100012.77;;;38.83;16.64
59588;BME280;45412;54.472;18.464;2022-08-03T11:00:17;100017.47;;;38.28;17.44
59588;BME280;45412;54.472;18.464;2022-08-03T11:03:13;100015.84;;;38.92;16.69
59588;BME280;45412;54.472;18.464;2022-08-03T11:06:16;100018.52;;;39.60;16.36
59588;BME280;45412;54.472;18.464;2022-08-03T11:11:56;100011.45;;;41.01;15.27
59588;BME280;45412;54.472;18.464;2022-08-03T11:14:46;100008.73;;;41.05;15.27
59588;BME280;45412;54.472;18.464;2022-08-03T11:17:35;100008.39;;;40.92;15.27
59588;BME280;45412;54.472;18.464;2022-08-03T11:23:46;100001.57;;;41.10;15.47
59588;BME280;45412;54.472;18.464;2022-08-03T11:30:23;100003.26;;;39.36;16.82
59588;BME280;45412;54.472;18.464;2022-08-03T11:33:29;99997.51;;;38.73;17.53
59588;BME280;45412;54.472;18.464;2022-08-03T11:36:18;99997.35;;;38.28;18.15
59588;BME280;45412;54.472;18.464;2022-08-03T11:39:19;99999.80;;;38.00;18.70
59588;BME280;45412;54.472;18.464;2022-08-03T11:45:21;100002.52;;;37.44;19.10
59588;BME280;45412;54.472;18.464;2022-08-03T11:48:15;100001.58;;;37.03;19.60
59588;BME280;45412;54.472;18.464;2022-08-03T11:51:06;99997.25;;;36.57;20.43
59588;BME280;45412;54.472;18.464;2022-08-03T11:54:01;99991.02;;;36.23;21.52
59588;BME280;45412;54.472;18.464;2022-08-03T11:56:49;99997.70;;;35.72;22.08
59588;BME280;45412;54.472;18.464;2022-08-03T11:59:37;99997.19;;;35.11;22.84
59588;BME280;45412;54.472;18.464;2022-08-03T12:02:25;99997.53;;;34.45;22.89
59588;BME280;45412;54.472;18.464;2022-08-03T12:05:13;100003.94;;;33.96;23.68
59588;BME280;45412;54.472;18.464;2022-08-03T12:08:02;100006.82;;;33.56;23.44
59588;BME280;45412;54.472;18.464;2022-08-03T12:10:55;99994.66;;;33.21;23.43
59588;BME280;45412;54.472;18.464;2022-08-03T12:13:49;99996.74;;;33.02;24.75
59588;BME280;45412;54.472;18.464;2022-08-03T12:17:00;99989.23;;;32.65;24.25
59588;BME280;45412;54.472;18.464;2022-08-03T12:19:48;99995.54;;;32.17;26.40
59588;BME280;45412;54.472;18.464;2022-08-03T12:22:39;99984.77;;;31.83;28.44
59588;BME280;45412;54.472;18.464;2022-08-03T12:25:26;99985.59;;;31.68;29.27
59588;BME280;45412;54.472;18.464;2022-08-03T12:28:26;99989.19;;;31.54;29.79
59588;BME280;45412;54.472;18.464;2022-08-03T12:31:24;99990.80;;;31.47;29.78
59588;BME280;45412;54.472;18.464;2022-08-03T12:34:12;99991.11;;;31.39;29.72
59588;BME280;45412;54.472;18.464;2022-08-03T12:37:04;99987.88;;;31.29;29.90
59588;BME280;45412;54.472;18.464;2022-08-03T12:40:10;99987.63;;;31.15;30.37
59588;BME280;45412;54.472;18.464;2022-08-03T12:43:11;99982.33;;;30.97;31.78
59588;BME280;45412;54.472;18.464;2022-08-03T12:46:11;99977.49;;;30.84;32.33
59588;BME280;45412;54.472;18.464;2022-08-03T12:49:07;99975.93;;;30.68;32.20
59588;BME280;45412;54.472;18.464;2022-08-03T12:51:58;99977.23;;;30.65;32.64
59588;BME280;45412;54.472;18.464;2022-08-03T12:54:55;99976.33;;;30.69;32.97
59588;BME280;45412;54.472;18.464;2022-08-03T12:57:43;99966.36;;;30.62;33.21
59588;BME280;45412;54.472;18.464;2022-08-03T13:00:32;99969.65;;;30.62;33.60
59588;BME280;45412;54.472;18.464;2022-08-03T13:03:21;99969.84;;;30.67;33.37
59588;BME280;45412;54.472;18.464;2022-08-03T13:06:28;99964.94;;;30.67;33.15
59588;BME280;45412;54.472;18.464;2022-08-03T13:09:16;99971.80;;;30.58;32.94
59588;BME280;45412;54.472;18.464;2022-08-03T13:12:10;99968.72;;;30.58;33.06
59588;BME280;45412;54.472;18.464;2022-08-03T13:14:59;99961.62;;;30.65;33.08
59588;BME280;45412;54.472;18.464;2022-08-03T13:17:47;99961.68;;;30.70;33.27
59588;BME280;45412;54.472;18.464;2022-08-03T13:20:35;99956.27;;;30.77;32.79
59588;BME280;45412;54.472;18.464;2022-08-03T13:23:23;99956.83;;;30.82;31.90
59588;BME280;45412;54.472;18.464;2022-08-03T13:26:12;99960.41;;;30.65;31.94
59588;BME280;45412;54.472;18.464;2022-08-03T13:29:00;99953.33;;;30.51;31.84
59588;BME280;45412;54.472;18.464;2022-08-03T13:31:49;99947.45;;;30.52;32.07
59588;BME280;45412;54.472;18.464;2022-08-03T13:34:38;99936.37;;;30.58;32.54
59588;BME280;45412;54.472;18.464;2022-08-03T13:37:28;99940.30;;;30.61;32.66
59588;BME280;45412;54.472;18.464;2022-08-03T13:40:16;99945.42;;;30.56;32.73
59588;BME280;45412;54.472;18.464;2022-08-03T13:43:04;99947.41;;;30.49;32.67
59588;BME280;45412;54.472;18.464;2022-08-03T13:45:52;99951.33;;;30.47;33.03
59588;BME280;45412;54.472;18.464;2022-08-03T13:48:44;99950.15;;;30.42;33.25
59588;BME280;45412;54.472;18.464;2022-08-03T13:51:33;99949.36;;;30.41;33.09
59588;BME280;45412;54.472;18.464;2022-08-03T13:54:22;99944.33;;;30.44;32.68
59588;BME280;45412;54.472;18.464;2022-08-03T13:57:10;99951.80;;;30.44;32.27
59588;BME280;45412;54.472;18.464;2022-08-03T14:00:19;99947.80;;;30.39;32.63
59588;BME280;45412;54.472;18.464;2022-08-03T14:03:15;99947.55;;;30.29;32.66
59588;BME280;45412;54.472;18.464;2022-08-03T14:06:04;99945.59;;;30.15;33.12
59588;BME280;45412;54.472;18.464;2022-08-03T14:08:51;99944.73;;;30.12;33.22
59588;BME280;45412;54.472;18.464;2022-08-03T14:11:44;99938.31;;;30.19;33.22
59588;BME280;45412;54.472;18.464;2022-08-03T14:14:52;99939.89;;;30.23;33.31
59588;BME280;45412;54.472;18.464;2022-08-03T14:17:48;99946.96;;;30.27;33.70
59588;BME280;45412;54.472;18.464;2022-08-03T14:20:37;99946.92;;;30.28;33.21
59588;BME280;45412;54.472;18.464;2022-08-03T14:23:40;99937.27;;;30.29;33.15
59588;BME280;45412;54.472;18.464;2022-08-03T14:26:28;99933.29;;;30.34;32.82
59588;BME280;45412;54.472;18.464;2022-08-03T14:29:17;99928.90;;;30.38;32.63
59588;BME280;45412;54.472;18.464;2022-08-03T14:32:05;99927.11;;;30.39;32.56
59588;BME280;45412;54.472;18.464;2022-08-03T14:34:57;99923.44;;;30.37;32.60
59588;BME280;45412;54.472;18.464;2022-08-03T14:37:45;99919.52;;;30.39;31.93
59588;BME280;45412;54.472;18.464;2022-08-03T14:40:33;99923.80;;;30.39;31.85
59588;BME280;45412;54.472;18.464;2022-08-03T14:43:21;99921.23;;;30.35;31.34
59588;BME280;45412;54.472;18.464;2022-08-03T14:46:09;99927.56;;;30.36;31.66
59588;BME280;45412;54.472;18.464;2022-08-03T14:48:58;99922.63;;;30.41;31.68
59588;BME280;45412;54.472;18.464;2022-08-03T14:52:06;99921.80;;;30.28;31.48
59588;BME280;45412;54.472;18.464;2022-08-03T14:54:55;99924.43;;;30.24;31.30
59588;BME280;45412;54.472;18.464;2022-08-03T14:57:43;99923.61;;;30.20;31.24
59588;BME280;45412;54.472;18.464;2022-08-03T15:00:32;99924.73;;;30.18;31.88
59588;BME280;45412;54.472;18.464;2022-08-03T15:03:22;99927.48;;;30.15;31.76
59588;BME280;45412;54.472;18.464;2022-08-03T15:06:12;99923.23;;;30.10;31.74
59588;BME280;45412;54.472;18.464;2022-08-03T15:09:00;99918.82;;;30.01;31.74
59588;BME280;45412;54.472;18.464;2022-08-03T15:12:08;99920.17;;;29.99;31.82
59588;BME280;45412;54.472;18.464;2022-08-03T15:14:56;99914.08;;;29.94;32.01
59588;BME280;45412;54.472;18.464;2022-08-03T15:17:44;99914.38;;;29.93;32.33
59588;BME280;45412;54.472;18.464;2022-08-03T15:20:47;99915.55;;;29.92;31.82
59588;BME280;45412;54.472;18.464;2022-08-03T15:23:37;99913.09;;;29.91;32.12